Flight Track Log - Related Links

Times and Time Zones

All times are in EST time to prevent confusion due to time zone crossing. See the N65537 flight status page for this flight to view local times or setup timezone preferences in your user account.

Time Position Orientation Groundspeed Altitude Reporting Facility
EST Latitude Longitude Course Direction KTS MPH feet Rate Location/Type
Sat 01:57:48 PM 33.8167 -118.1667 270° West 74 85 900  Level Southern California TRACON
Sat 01:58:48 PM 33.8167 -118.2000 270° West 73 84 1,800 793 Climbing Southern California TRACON
Sat 01:59:49 PM 33.8167 -118.2167 270° West 76 87 2,500 694 Climbing Southern California TRACON
Sat 02:00:49 PM 33.8167 -118.2500 320° Northwest 90 104 3,200 789 Climbing Southern California TRACON
Sat 02:01:43 PM 33.8333 -118.2667 270° West 66 76 4,000 700 Climbing Southern California TRACON
Sat 02:02:49 PM 33.8333 -118.3000 360° North 80 92 4,600 550 Climbing Southern California TRACON
Sat 02:03:43 PM 33.8500 -118.3000 320° Northwest 89 102 5,100 250 Climbing Southern California TRACON
Sat 02:04:49 PM 33.8667 -118.3167 320° Northwest 106 122 5,100 -47 Level Southern California TRACON
Sat 02:05:50 PM 33.9000 -118.3500 301° West 103 119 5,000 -50 Descending Southern California TRACON
Sat 02:06:50 PM 33.9167 -118.3833 320° Northwest 98 113 5,000  Level Southern California TRACON
Sat 02:07:50 PM 33.9333 -118.4000 320° Northwest 100 115 5,000  Level Southern California TRACON
Sat 02:08:50 PM 33.9500 -118.4167 337° Northwest 100 115 5,000  Level Southern California TRACON
Sat 02:09:50 PM 33.9833 -118.4333 320° Northwest 100 115 5,000  Level Southern California TRACON
Sat 02:10:45 PM 34.0000 -118.4500 337° Northwest 103 119 5,000  Level Southern California TRACON
Sat 02:11:45 PM 34.0333 -118.4667 301° West 101 116 5,000  Level Southern California TRACON
Sat 02:12:45 PM 34.0500 -118.5000 320° Northwest 106 122 5,000  Level Southern California TRACON
Sat 02:13:45 PM 34.0667 -118.5167 301° West 106 122 5,000  Level Southern California TRACON
Sat 02:14:45 PM 34.0833 -118.5500 338° Northwest 106 122 5,000  Level Southern California TRACON
Sat 02:15:45 PM 34.1167 -118.5667 320° Northwest 105 121 5,000  Level Southern California TRACON
Sat 02:16:45 PM 34.1333 -118.5833 360° North 101 116 5,000  Level Southern California TRACON
Sat 02:17:46 PM 34.1667 -118.5833 338° Northwest 105 121 5,000  Level Southern California TRACON
Sat 02:18:46 PM 34.2000 -118.6000 360° North 106 122 5,000  Level Southern California TRACON
Sat 02:19:46 PM 34.2167 -118.6000 360° North 108 124 5,000  Level Southern California TRACON
Sat 02:20:46 PM 34.2500 -118.6000 360° North 107 123 5,000  Level Southern California TRACON
Sat 02:21:46 PM 34.2833 -118.6000 22° Northeast 107 123 5,000  Level Southern California TRACON
Sat 02:22:46 PM 34.3167 -118.5833 360° North 110 127 5,000  Level Southern California TRACON
Sat 02:23:47 PM 34.3333 -118.5833 360° North 104 120 5,000  Level Southern California TRACON
Sat 02:24:47 PM 34.3667 -118.5833 22° Northeast 102 117 5,000  Level Southern California TRACON
Sat 02:25:47 PM 34.4000 -118.5667 360° North 102 117 5,000  Level Southern California TRACON
Sat 02:26:47 PM 34.4167 -118.5667 59° Northeast 104 120 5,000  Level Southern California TRACON
Sat 02:27:47 PM 34.4333 -118.5333 140° Southeast 118 136 5,000  Level Southern California TRACON
Sat 02:28:53 PM 34.4000 -118.5000 180° South 124 143 5,000 -452 Level Southern California TRACON
Sat 02:30:53 PM 34.3167 -118.5000 180° South 132 152 3,600 -733 Descending Southern California TRACON
Sat 02:31:53 PM 34.2833 -118.5000 180° South 121 139 2,800 -783 Descending Southern California TRACON
Sat 02:32:48 PM 34.2667 -118.5000 180° South 110 127 2,100 -764 Descending Southern California TRACON

Login

Don't have an account? Register now (free) for customized features, flight alerts, and more!